sensor_id;sensor_type;location;lat;lon;timestamp;pressure;altitude;pressure_sealevel;temperature;humidity
59337;BME280;45115;52.002;4.686;2023-09-19T00:02:21;65183.03;;;13.50;100.00
59337;BME280;45115;52.002;4.686;2023-09-19T00:04:47;65180.31;;;13.50;100.00
59337;BME280;45115;52.002;4.686;2023-09-19T00:07:15;65192.22;;;13.60;100.00
59337;BME280;45115;52.002;4.686;2023-09-19T00:09:43;65200.16;;;13.67;100.00
59337;BME280;45115;52.002;4.686;2023-09-19T00:12:09;65226.84;;;13.91;100.00
59337;BME280;45115;52.002;4.686;2023-09-19T00:14:38;65232.53;;;13.96;100.00
59337;BME280;45115;52.002;4.686;2023-09-19T00:17:06;65240.94;;;14.01;100.00
59337;BME280;45115;52.002;4.686;2023-09-19T00:19:34;65240.47;;;14.03;100.00
59337;BME280;45115;52.002;4.686;2023-09-19T00:22:01;65248.19;;;14.05;100.00
59337;BME280;45115;52.002;4.686;2023-09-19T00:24:28;65258.09;;;14.18;100.00
59337;BME280;45115;52.002;4.686;2023-09-19T00:26:56;65265.47;;;14.25;100.00
59337;BME280;45115;52.002;4.686;2023-09-19T00:29:24;65264.88;;;14.24;100.00
59337;BME280;45115;52.002;4.686;2023-09-19T00:31:55;65264.88;;;14.24;100.00
59337;BME280;45115;52.002;4.686;2023-09-19T00:34:23;65251.38;;;14.15;100.00
59337;BME280;45115;52.002;4.686;2023-09-19T00:36:50;65239.69;;;13.97;100.00
59337;BME280;45115;52.002;4.686;2023-09-19T00:39:19;65217.53;;;13.78;100.00
59337;BME280;45115;52.002;4.686;2023-09-19T00:41:47;65226.84;;;13.91;100.00
59337;BME280;45115;52.002;4.686;2023-09-19T00:44:14;65235.38;;;13.98;100.00
59337;BME280;45115;52.002;4.686;2023-09-19T00:46:43;65233.00;;;13.94;100.00
59337;BME280;45115;52.002;4.686;2023-09-19T00:49:13;65233.66;;;13.97;100.00
59337;BME280;45115;52.002;4.686;2023-09-19T00:51:43;65228.34;;;13.87;100.00
59337;BME280;45115;52.002;4.686;2023-09-19T00:54:13;65217.53;;;13.78;100.00
59337;BME280;45115;52.002;4.686;2023-09-19T00:56:43;65204.81;;;13.74;100.00
59337;BME280;45115;52.002;4.686;2023-09-19T00:59:10;65192.78;;;13.61;100.00
59337;BME280;45115;52.002;4.686;2023-09-19T01:01:37;65191.44;;;13.55;100.00
59337;BME280;45115;52.002;4.686;2023-09-19T01:04:05;65203.91;;;13.66;100.00
59337;BME280;45115;52.002;4.686;2023-09-19T01:06:32;65209.25;;;13.75;100.00
59337;BME280;45115;52.002;4.686;2023-09-19T01:09:00;65201.88;;;13.69;100.00
59337;BME280;45115;52.002;4.686;2023-09-19T01:11:33;65221.63;;;13.84;100.00
59337;BME280;45115;52.002;4.686;2023-09-19T01:14:18;65226.63;;;13.86;100.00
59337;BME280;45115;52.002;4.686;2023-09-19T01:16:53;65227.31;;;13.89;100.00
59337;BME280;45115;52.002;4.686;2023-09-19T01:19:44;65222.41;;;13.89;100.00
59337;BME280;45115;52.002;4.686;2023-09-19T01:22:23;65245.47;;;14.05;100.00
59337;BME280;45115;52.002;4.686;2023-09-19T01:25:13;65258.09;;;14.18;100.00
59337;BME280;45115;52.002;4.686;2023-09-19T01:28:06;65277.31;;;14.33;100.00
59337;BME280;45115;52.002;4.686;2023-09-19T01:30:43;65296.63;;;14.50;100.00
59337;BME280;45115;52.002;4.686;2023-09-19T01:33:10;65293.22;;;14.47;100.00
59337;BME280;45115;52.002;4.686;2023-09-19T01:35:37;65293.53;;;14.54;100.00
59337;BME280;45115;52.002;4.686;2023-09-19T01:38:04;65324.00;;;14.77;100.00
59337;BME280;45115;52.002;4.686;2023-09-19T01:40:33;65345.50;;;14.93;100.00
59337;BME280;45115;52.002;4.686;2023-09-19T01:43:04;65339.34;;;14.90;100.00
59337;BME280;45115;52.002;4.686;2023-09-19T01:45:46;65340.47;;;14.91;100.00
59337;BME280;45115;52.002;4.686;2023-09-19T01:48:22;65343.13;;;14.89;100.00
59337;BME280;45115;52.002;4.686;2023-09-19T01:50:55;65336.97;;;14.86;100.00
59337;BME280;45115;52.002;4.686;2023-09-19T01:53:27;65334.69;;;14.84;100.00
59337;BME280;45115;52.002;4.686;2023-09-19T01:55:56;65345.38;;;14.91;100.00
59337;BME280;45115;52.002;4.686;2023-09-19T01:58:29;65335.25;;;14.84;100.00
59337;BME280;45115;52.002;4.686;2023-09-19T02:01:01;65324.56;;;14.77;100.00
59337;BME280;45115;52.002;4.686;2023-09-19T02:03:31;65316.72;;;14.73;100.00
59337;BME280;45115;52.002;4.686;2023-09-19T02:06:00;65322.66;;;14.71;100.00
59337;BME280;45115;52.002;4.686;2023-09-19T02:08:27;65300.03;;;14.53;100.00
59337;BME280;45115;52.002;4.686;2023-09-19T02:10:54;65308.56;;;14.61;100.00
59337;BME280;45115;52.002;4.686;2023-09-19T02:13:22;65306.28;;;14.59;100.00
59337;BME280;45115;52.002;4.686;2023-09-19T02:15:50;65294.13;;;14.55;100.00
59337;BME280;45115;52.002;4.686;2023-09-19T02:18:18;65303.44;;;14.56;100.00
59337;BME280;45115;52.002;4.686;2023-09-19T02:20:44;65295.03;;;14.51;100.00
59337;BME280;45115;52.002;4.686;2023-09-19T02:23:12;65287.53;;;14.42;100.00
59337;BME280;45115;52.002;4.686;2023-09-19T02:25:52;65297.88;;;14.53;100.00
59337;BME280;45115;52.002;4.686;2023-09-19T02:28:20;65297.75;;;14.51;100.00
59337;BME280;45115;52.002;4.686;2023-09-19T02:30:47;65300.03;;;14.53;100.00
59337;BME280;45115;52.002;4.686;2023-09-19T02:33:15;65276.28;;;14.34;100.00
59337;BME280;45115;52.002;4.686;2023-09-19T02:35:43;65267.06;;;14.24;100.00
59337;BME280;45115;52.002;4.686;2023-09-19T02:38:10;65254.13;;;14.15;100.00
59337;BME280;45115;52.002;4.686;2023-09-19T02:40:37;65255.81;;;14.16;100.00
59337;BME280;45115;52.002;4.686;2023-09-19T02:43:06;65250.59;;;14.09;100.00
59337;BME280;45115;52.002;4.686;2023-09-19T02:45:34;65245.22;;;14.12;100.00
59337;BME280;45115;52.002;4.686;2023-09-19T02:48:01;65239.78;;;14.00;100.00
59337;BME280;45115;52.002;4.686;2023-09-19T02:50:30;65225.84;;;13.92;100.00
59337;BME280;45115;52.002;4.686;2023-09-19T02:52:57;65237.41;;;13.95;100.00
59337;BME280;45115;52.002;4.686;2023-09-19T02:55:24;65234.22;;;13.97;100.00
59337;BME280;45115;52.002;4.686;2023-09-19T02:57:52;65237.50;;;13.98;100.00
59337;BME280;45115;52.002;4.686;2023-09-19T03:00:21;65230.81;;;13.94;100.00
59337;BME280;45115;52.002;4.686;2023-09-19T03:02:48;65234.22;;;13.97;100.00
59337;BME280;45115;52.002;4.686;2023-09-19T03:05:15;65236.38;;;13.97;100.00
59337;BME280;45115;52.002;4.686;2023-09-19T03:07:43;65242.41;;;14.09;100.00
59337;BME280;45115;52.002;4.686;2023-09-19T03:10:12;65254.56;;;14.13;100.00
59337;BME280;45115;52.002;4.686;2023-09-19T03:12:41;65271.75;;;14.30;100.00
59337;BME280;45115;52.002;4.686;2023-09-19T03:15:08;65274.47;;;14.30;100.00
59337;BME280;45115;52.002;4.686;2023-09-19T03:17:35;65272.31;;;14.31;100.00
59337;BME280;45115;52.002;4.686;2023-09-19T03:20:02;65285.81;;;14.40;100.00
59337;BME280;45115;52.002;4.686;2023-09-19T03:22:30;65289.22;;;14.43;100.00
59337;BME280;45115;52.002;4.686;2023-09-19T03:24:56;65280.94;;;14.41;100.00
59337;BME280;45115;52.002;4.686;2023-09-19T03:27:24;65287.44;;;14.39;100.00
59337;BME280;45115;52.002;4.686;2023-09-19T03:29:51;65283.56;;;14.38;100.00
59337;BME280;45115;52.002;4.686;2023-09-19T03:32:18;65279.56;;;14.35;100.00
59337;BME280;45115;52.002;4.686;2023-09-19T03:34:45;65271.63;;;14.28;100.00
59337;BME280;45115;52.002;4.686;2023-09-19T03:37:14;65277.19;;;14.30;100.00
59337;BME280;45115;52.002;4.686;2023-09-19T03:39:41;65274.47;;;14.30;100.00
59337;BME280;45115;52.002;4.686;2023-09-19T03:42:07;65264.88;;;14.24;100.00
59337;BME280;45115;52.002;4.686;2023-09-19T03:44:37;65267.53;;;14.22;100.00
59337;BME280;45115;52.002;4.686;2023-09-19T03:47:03;65276.63;;;14.30;100.00
59337;BME280;45115;52.002;4.686;2023-09-19T03:49:31;65270.50;;;14.27;100.00
59337;BME280;45115;52.002;4.686;2023-09-19T03:51:59;65258.19;;;14.21;100.00
59337;BME280;45115;52.002;4.686;2023-09-19T03:54:26;65260.25;;;14.18;100.00
59337;BME280;45115;52.002;4.686;2023-09-19T03:56:52;65252.28;;;14.11;100.00
59337;BME280;45115;52.002;4.686;2023-09-19T03:59:19;65241.63;;;14.04;100.00
59337;BME280;45115;52.002;4.686;2023-09-19T04:01:47;65240.38;;;14.00;100.00
59337;BME280;45115;52.002;4.686;2023-09-19T04:04:15;65243.09;;;14.00;100.00
59337;BME280;45115;52.002;4.686;2023-09-19T04:06:44;65239.91;;;14.02;100.00
59337;BME280;45115;52.002;4.686;2023-09-19T04:09:10;65242.63;;;14.02;100.00
59337;BME280;45115;52.002;4.686;2023-09-19T04:11:38;65243.09;;;14.00;100.00
59337;BME280;45115;52.002;4.686;2023-09-19T04:14:05;65242.63;;;14.02;100.00
59337;BME280;45115;52.002;4.686;2023-09-19T04:16:31;65236.38;;;13.97;100.00
59337;BME280;45115;52.002;4.686;2023-09-19T04:19:00;65233.09;;;13.96;100.00
59337;BME280;45115;52.002;4.686;2023-09-19T04:21:28;65224.59;;;13.89;100.00
59337;BME280;45115;52.002;4.686;2023-09-19T04:23:55;65217.19;;;13.82;100.00
59337;BME280;45115;52.002;4.686;2023-09-19T04:26:21;65218.13;;;13.78;100.00
59337;BME280;45115;52.002;4.686;2023-09-19T04:28:49;65215.38;;;13.78;100.00
59337;BME280;45115;52.002;4.686;2023-09-19T04:31:16;65208.69;;;13.75;100.00
59337;BME280;45115;52.002;4.686;2023-09-19T04:33:44;65208.22;;;13.77;100.00
59337;BME280;45115;52.002;4.686;2023-09-19T04:36:13;65220.41;;;13.80;100.00
59337;BME280;45115;52.002;4.686;2023-09-19T04:38:40;65226.75;;;13.88;100.00
59337;BME280;45115;52.002;4.686;2023-09-19T04:41:07;65225.63;;;13.87;100.00
59337;BME280;45115;52.002;4.686;2023-09-19T04:43:34;65233.00;;;13.94;100.00
59337;BME280;45115;52.002;4.686;2023-09-19T04:46:01;65238.66;;;13.99;100.00
59337;BME280;45115;52.002;4.686;2023-09-19T04:48:31;65231.38;;;13.95;100.00
59337;BME280;45115;52.002;4.686;2023-09-19T04:50:59;65229.00;;;13.90;100.00
59337;BME280;45115;52.002;4.686;2023-09-19T04:53:28;65221.16;;;13.86;100.00
59337;BME280;45115;52.002;4.686;2023-09-19T04:55:54;65227.19;;;13.86;100.00
59337;BME280;45115;52.002;4.686;2023-09-19T04:58:21;65227.88;;;13.89;100.00
59337;BME280;45115;52.002;4.686;2023-09-19T05:00:48;65235.25;;;13.96;100.00
59337;BME280;45115;52.002;4.686;2023-09-19T05:03:16;65234.13;;;13.95;100.00
59337;BME280;45115;52.002;4.686;2023-09-19T05:05:43;65234.91;;;14.00;100.00
59337;BME280;45115;52.002;4.686;2023-09-19T05:08:09;65243.22;;;14.03;100.00
59337;BME280;45115;52.002;4.686;2023-09-19T05:10:37;65243.22;;;14.03;100.00
59337;BME280;45115;52.002;4.686;2023-09-19T05:13:04;65246.25;;;14.10;100.00
59337;BME280;45115;52.002;4.686;2023-09-19T05:15:33;65255.81;;;14.16;100.00
59337;BME280;45115;52.002;4.686;2023-09-19T05:18:01;65262.06;;;14.22;100.00
59337;BME280;45115;52.002;4.686;2023-09-19T05:20:29;65270.59;;;14.29;100.00
59337;BME280;45115;52.002;4.686;2023-09-19T05:23:01;65259.34;;;14.22;100.00
59337;BME280;45115;52.002;4.686;2023-09-19T05:25:28;65261.94;;;14.19;100.00
59337;BME280;45115;52.002;4.686;2023-09-19T05:27:58;65267.06;;;14.24;100.00
59337;BME280;45115;52.002;4.686;2023-09-19T05:30:26;65266.03;;;14.25;100.00
59337;BME280;45115;52.002;4.686;2023-09-19T05:32:54;65269.91;;;14.26;100.00
59337;BME280;45115;52.002;4.686;2023-09-19T05:35:21;65269.34;;;14.26;100.00
59337;BME280;45115;52.002;4.686;2023-09-19T05:37:50;65261.84;;;14.17;100.00
59337;BME280;45115;52.002;4.686;2023-09-19T05:40:17;65253.41;;;14.12;100.00
59337;BME280;45115;52.002;4.686;2023-09-19T05:42:43;65248.53;;;14.12;100.00
59337;BME280;45115;52.002;4.686;2023-09-19T05:45:14;65256.94;;;14.17;100.00
59337;BME280;45115;52.002;4.686;2023-09-19T05:47:47;65247.28;;;14.09;100.00
59337;BME280;45115;52.002;4.686;2023-09-19T05:50:15;65252.41;;;14.13;100.00
59337;BME280;45115;52.002;4.686;2023-09-19T05:52:58;65254.78;;;14.18;100.00
59337;BME280;45115;52.002;4.686;2023-09-19T05:55:39;65253.66;;;14.17;100.00
59337;BME280;45115;52.002;4.686;2023-09-19T05:58:05;65259.78;;;14.20;100.00
59337;BME280;45115;52.002;4.686;2023-09-19T06:00:33;65271.06;;;14.27;100.00
59337;BME280;45115;52.002;4.686;2023-09-19T06:03:00;65276.75;;;14.32;100.00
59337;BME280;45115;52.002;4.686;2023-09-19T06:05:27;65288.69;;;14.43;100.00
59337;BME280;45115;52.002;4.686;2023-09-19T06:07:55;65291.03;;;14.47;100.00
59337;BME280;45115;52.002;4.686;2023-09-19T06:10:25;65302.88;;;14.55;100.00
59337;BME280;45115;52.002;4.686;2023-09-19T06:12:53;65310.25;;;14.62;100.00
59337;BME280;45115;52.002;4.686;2023-09-19T06:15:23;65318.31;;;14.72;100.00
59337;BME280;45115;52.002;4.686;2023-09-19T06:17:52;65318.31;;;14.72;100.00
59337;BME280;45115;52.002;4.686;2023-09-19T06:20:20;65319.91;;;14.71;100.00
59337;BME280;45115;52.002;4.686;2023-09-19T06:22:49;65320.25;;;14.78;100.00
59337;BME280;45115;52.002;4.686;2023-09-19T06:25:17;65340.94;;;14.89;100.00
59337;BME280;45115;52.002;4.686;2023-09-19T06:27:44;65338.22;;;14.89;100.00
59337;BME280;45115;52.002;4.686;2023-09-19T06:30:12;65344.47;;;14.95;100.00
59337;BME280;45115;52.002;4.686;2023-09-19T06:32:39;65350.59;;;14.98;100.00
59337;BME280;45115;52.002;4.686;2023-09-19T06:35:10;65353.56;;;15.03;100.00
59337;BME280;45115;52.002;4.686;2023-09-19T06:37:37;65358.69;;;15.07;100.00
59337;BME280;45115;52.002;4.686;2023-09-19T06:40:07;65364.34;;;15.12;100.00
59337;BME280;45115;52.002;4.686;2023-09-19T06:42:39;65371.06;;;15.16;100.00
59337;BME280;45115;52.002;4.686;2023-09-19T06:45:07;65372.19;;;15.17;100.00
59337;BME280;45115;52.002;4.686;2023-09-19T06:47:34;65375.06;;;15.19;100.00
59337;BME280;45115;52.002;4.686;2023-09-19T06:50:02;65382.56;;;15.28;100.00
59337;BME280;45115;52.002;4.686;2023-09-19T06:52:32;65393.25;;;15.35;100.00
59337;BME280;45115;52.002;4.686;2023-09-19T06:54:59;65395.06;;;15.39;100.00
59337;BME280;45115;52.002;4.686;2023-09-19T06:57:28;65414.78;;;15.52;100.00
59337;BME280;45115;52.002;4.686;2023-09-19T06:59:56;65420.00;;;15.59;100.00
59337;BME280;45115;52.002;4.686;2023-09-19T07:02:22;65421.81;;;15.63;100.00
59337;BME280;45115;52.002;4.686;2023-09-19T07:04:49;65430.91;;;15.71;100.00
59337;BME280;45115;52.002;4.686;2023-09-19T07:07:16;65437.75;;;15.77;100.00
59337;BME280;45115;52.002;4.686;2023-09-19T07:09:44;65447.97;;;15.86;100.00
59337;BME280;45115;52.002;4.686;2023-09-19T07:12:10;65466.09;;;16.00;100.00
59337;BME280;45115;52.002;4.686;2023-09-19T07:14:38;65469.59;;;16.05;100.00
59337;BME280;45115;52.002;4.686;2023-09-19T07:17:05;65474.06;;;16.07;100.00
59337;BME280;45115;52.002;4.686;2023-09-19T07:19:31;65474.16;;;16.09;100.00
59337;BME280;45115;52.002;4.686;2023-09-19T07:22:23;65474.72;;;16.10;100.00
59337;BME280;45115;52.002;4.686;2023-09-19T07:24:51;65481.56;;;16.16;100.00
59337;BME280;45115;52.002;4.686;2023-09-19T07:27:17;65486.00;;;16.17;100.00
59337;BME280;45115;52.002;4.686;2023-09-19T07:29:44;65493.28;;;16.21;100.00
59337;BME280;45115;52.002;4.686;2023-09-19T07:32:11;65492.84;;;16.23;100.00
59337;BME280;45115;52.002;4.686;2023-09-19T07:34:38;65512.28;;;16.43;100.00
59337;BME280;45115;52.002;4.686;2023-09-19T07:37:06;65529.94;;;16.58;100.00
59337;BME280;45115;52.002;4.686;2023-09-19T07:39:33;65531.66;;;16.60;100.00
59337;BME280;45115;52.002;4.686;2023-09-19T07:42:01;65536.66;;;16.62;100.00
59337;BME280;45115;52.002;4.686;2023-09-19T07:44:28;65533.84;;;16.59;100.00
59337;BME280;45115;52.002;4.686;2023-09-19T07:46:54;65531.75;;;16.62;100.00
59337;BME280;45115;52.002;4.686;2023-09-19T07:49:22;65539.66;;;16.67;100.00
59337;BME280;45115;52.002;4.686;2023-09-19T07:51:48;65526.66;;;16.58;100.00
59337;BME280;45115;52.002;4.686;2023-09-19T07:54:15;65555.59;;;16.81;100.00
59337;BME280;45115;52.002;4.686;2023-09-19T07:56:42;65578.72;;;16.97;100.00
59337;BME280;45115;52.002;4.686;2023-09-19T07:59:12;65584.63;;;17.07;100.00
59337;BME280;45115;52.002;4.686;2023-09-19T08:01:39;65628.97;;;17.43;100.00
59337;BME280;45115;52.002;4.686;2023-09-19T08:04:07;65625.09;;;17.42;97.94
59337;BME280;45115;52.002;4.686;2023-09-19T08:06:34;65631.47;;;17.50;98.24
59337;BME280;45115;52.002;4.686;2023-09-19T08:09:03;65623.47;;;17.43;98.92
59337;BME280;45115;52.002;4.686;2023-09-19T08:11:33;65635.47;;;17.54;97.28
59337;BME280;45115;52.002;4.686;2023-09-19T08:13:59;65636.03;;;17.54;97.18
59337;BME280;45115;52.002;4.686;2023-09-19T08:16:28;65656.66;;;17.75;96.29
59337;BME280;45115;52.002;4.686;2023-09-19T08:18:54;65649.59;;;17.64;96.20
59337;BME280;45115;52.002;4.686;2023-09-19T08:21:21;65658.72;;;17.72;94.99
59337;BME280;45115;52.002;4.686;2023-09-19T08:23:49;65675.81;;;17.87;94.68
59337;BME280;45115;52.002;4.686;2023-09-19T08:26:16;65705.34;;;18.11;95.58
59337;BME280;45115;52.002;4.686;2023-09-19T08:28:43;65705.66;;;18.18;94.78
59337;BME280;45115;52.002;4.686;2023-09-19T08:31:09;65728.16;;;18.31;95.20
59337;BME280;45115;52.002;4.686;2023-09-19T08:33:37;65733.53;;;18.40;93.24
59337;BME280;45115;52.002;4.686;2023-09-19T08:36:06;65756.34;;;18.60;93.36
59337;BME280;45115;52.002;4.686;2023-09-19T08:38:35;65747.22;;;18.52;92.87
59337;BME280;45115;52.002;4.686;2023-09-19T08:41:05;65720.97;;;18.29;93.49
59337;BME280;45115;52.002;4.686;2023-09-19T08:43:32;65704.34;;;18.12;93.39
59337;BME280;45115;52.002;4.686;2023-09-19T08:46:09;65713.44;;;18.20;93.31
59337;BME280;45115;52.002;4.686;2023-09-19T08:48:42;65689.88;;;17.95;93.46
59337;BME280;45115;52.002;4.686;2023-09-19T08:51:18;65678.00;;;17.87;94.41
59337;BME280;45115;52.002;4.686;2023-09-19T08:53:51;65685.50;;;17.96;94.41
59337;BME280;45115;52.002;4.686;2023-09-19T08:56:18;65663.84;;;17.76;95.36
59337;BME280;45115;52.002;4.686;2023-09-19T08:58:50;65669.19;;;17.86;94.83
59337;BME280;45115;52.002;4.686;2023-09-19T09:01:18;65687.22;;;17.97;93.92
59337;BME280;45115;52.002;4.686;2023-09-19T09:03:51;65704.34;;;18.12;93.74
59337;BME280;45115;52.002;4.686;2023-09-19T09:06:19;65695.88;;;18.07;93.57
59337;BME280;45115;52.002;4.686;2023-09-19T09:08:46;65696.81;;;18.03;94.95
59337;BME280;45115;52.002;4.686;2023-09-19T09:11:14;65706.72;;;18.17;94.93
59337;BME280;45115;52.002;4.686;2023-09-19T09:13:43;65691.66;;;17.99;95.26
59337;BME280;45115;52.002;4.686;2023-09-19T09:16:10;65701.94;;;18.08;94.96
59337;BME280;45115;52.002;4.686;2023-09-19T09:18:38;65722.09;;;18.30;94.35
59337;BME280;45115;52.002;4.686;2023-09-19T09:21:06;65724.75;;;18.28;94.33
59337;BME280;45115;52.002;4.686;2023-09-19T09:23:33;65747.22;;;18.52;92.67
59337;BME280;45115;52.002;4.686;2023-09-19T09:26:00;65760.72;;;18.59;92.07
59337;BME280;45115;52.002;4.686;2023-09-19T09:28:31;65743.69;;;18.47;90.37
59337;BME280;45115;52.002;4.686;2023-09-19T09:30:58;65764.22;;;18.65;91.05
59337;BME280;45115;52.002;4.686;2023-09-19T09:33:26;65791.16;;;18.91;90.67
59337;BME280;45115;52.002;4.686;2023-09-19T09:35:55;65770.50;;;18.70;90.14
59337;BME280;45115;52.002;4.686;2023-09-19T09:38:26;65746.44;;;18.47;91.60
59337;BME280;45115;52.002;4.686;2023-09-19T09:40:55;65725.03;;;18.35;92.29
59337;BME280;45115;52.002;4.686;2023-09-19T09:43:32;65740.84;;;18.44;93.03
59337;BME280;45115;52.002;4.686;2023-09-19T09:46:09;65769.38;;;18.69;91.15
59337;BME280;45115;52.002;4.686;2023-09-19T09:49:05;65813.31;;;19.08;88.57
59337;BME280;45115;52.002;4.686;2023-09-19T09:51:42;65870.41;;;19.58;88.15
59337;BME280;45115;52.002;4.686;2023-09-19T09:54:15;65874.97;;;19.62;86.36
59337;BME280;45115;52.002;4.686;2023-09-19T09:56:53;65881.75;;;19.66;86.11
59337;BME280;45115;52.002;4.686;2023-09-19T09:59:45;65855.00;;;19.45;87.10
59337;BME280;45115;52.002;4.686;2023-09-19T10:02:16;65861.16;;;19.48;86.10
59337;BME280;45115;52.002;4.686;2023-09-19T10:04:50;65849.19;;;19.37;86.77
59337;BME280;45115;52.002;4.686;2023-09-19T10:07:41;65914.50;;;19.99;85.36
59337;BME280;45115;52.002;4.686;2023-09-19T10:10:29;65963.53;;;20.40;83.26
59337;BME280;45115;52.002;4.686;2023-09-19T10:13:05;65951.06;;;20.32;82.46
59337;BME280;45115;52.002;4.686;2023-09-19T10:15:33;65957.81;;;20.35;82.22
59337;BME280;45115;52.002;4.686;2023-09-19T10:18:04;65958.97;;;20.36;83.24
59337;BME280;45115;52.002;4.686;2023-09-19T10:20:31;65933.81;;;20.14;81.32
59337;BME280;45115;52.002;4.686;2023-09-19T10:23:06;65923.53;;;20.05;81.05
59337;BME280;45115;52.002;4.686;2023-09-19T10:25:40;65911.44;;;19.92;80.55
59337;BME280;45115;52.002;4.686;2023-09-19T10:28:08;65927.63;;;20.11;81.50
59337;BME280;45115;52.002;4.686;2023-09-19T10:30:37;65976.13;;;20.51;80.28
59337;BME280;45115;52.002;4.686;2023-09-19T10:33:09;65967.06;;;20.46;79.32
59337;BME280;45115;52.002;4.686;2023-09-19T10:35:37;65994.22;;;20.62;79.00
59337;BME280;45115;52.002;4.686;2023-09-19T10:38:06;65967.06;;;20.46;78.66
59337;BME280;45115;52.002;4.686;2023-09-19T10:40:35;65922.38;;;20.04;81.41
59337;BME280;45115;52.002;4.686;2023-09-19T10:43:11;65959.44;;;20.34;79.54
59337;BME280;45115;52.002;4.686;2023-09-19T10:45:39;65994.88;;;20.65;79.02
59337;BME280;45115;52.002;4.686;2023-09-19T10:48:06;65985.38;;;20.62;77.71
59337;BME280;45115;52.002;4.686;2023-09-19T10:50:36;65952.13;;;20.30;78.11
59337;BME280;45115;52.002;4.686;2023-09-19T10:53:11;65875.53;;;19.63;80.99
59337;BME280;45115;52.002;4.686;2023-09-19T10:55:39;65851.00;;;19.41;82.29
59337;BME280;45115;52.002;4.686;2023-09-19T10:58:08;65858.41;;;19.48;83.16
59337;BME280;45115;52.002;4.686;2023-09-19T11:00:51;65936.13;;;20.16;81.13
59337;BME280;45115;52.002;4.686;2023-09-19T11:03:22;65968.78;;;20.47;78.38
59337;BME280;45115;52.002;4.686;2023-09-19T11:06:06;65968.59;;;20.42;79.03
59337;BME280;45115;52.002;4.686;2023-09-19T11:08:55;65953.94;;;20.34;77.96
59337;BME280;45115;52.002;4.686;2023-09-19T11:11:49;65961.94;;;20.41;78.13
59337;BME280;45115;52.002;4.686;2023-09-19T11:14:39;65965.16;;;20.39;77.75
59337;BME280;45115;52.002;4.686;2023-09-19T11:17:40;65941.94;;;20.24;77.94
59337;BME280;45115;52.002;4.686;2023-09-19T11:20:20;65965.94;;;20.45;78.46
59337;BME280;45115;52.002;4.686;2023-09-19T11:23:22;65952.69;;;20.31;78.10
59337;BME280;45115;52.002;4.686;2023-09-19T11:25:51;65951.66;;;20.32;78.73
59337;BME280;45115;52.002;4.686;2023-09-19T11:28:35;65935.66;;;20.18;79.76
59337;BME280;45115;52.002;4.686;2023-09-19T11:34:44;65887.06;;;19.75;79.52
59337;BME280;45115;52.002;4.686;2023-09-19T11:40:35;65882.28;;;19.66;82.01
59337;BME280;45115;52.002;4.686;2023-09-19T11:43:30;65880.69;;;19.67;81.92
59337;BME280;45115;52.002;4.686;2023-09-19T11:46:04;65844.53;;;19.31;82.45
59337;BME280;45115;52.002;4.686;2023-09-19T11:48:31;65816.72;;;19.11;84.10
59337;BME280;45115;52.002;4.686;2023-09-19T11:51:00;65804.75;;;19.01;85.23
59337;BME280;45115;52.002;4.686;2023-09-19T11:53:33;65802.47;;;18.99;85.59
59337;BME280;45115;52.002;4.686;2023-09-19T11:56:04;65803.03;;;18.99;84.86
59337;BME280;45115;52.002;4.686;2023-09-19T11:58:37;65805.78;;;18.99;85.35
59337;BME280;45115;52.002;4.686;2023-09-19T12:01:05;65811.59;;;19.07;85.36
59337;BME280;45115;52.002;4.686;2023-09-19T12:03:39;65821.09;;;19.10;85.50
59337;BME280;45115;52.002;4.686;2023-09-19T12:06:12;65830.41;;;19.23;85.54
59337;BME280;45115;52.002;4.686;2023-09-19T12:08:41;65820.84;;;19.17;85.20
59337;BME280;45115;52.002;4.686;2023-09-19T12:11:13;65808.16;;;19.04;85.45
59337;BME280;45115;52.002;4.686;2023-09-19T12:13:42;65857.75;;;19.45;86.27
59337;BME280;45115;52.002;4.686;2023-09-19T12:16:13;65897.81;;;19.82;82.91
59337;BME280;45115;52.002;4.686;2023-09-19T12:18:41;65908.09;;;19.91;83.29
59337;BME280;45115;52.002;4.686;2023-09-19T12:21:23;65929.22;;;20.10;82.59
59337;BME280;45115;52.002;4.686;2023-09-19T12:23:59;65936.69;;;20.17;82.45
59337;BME280;45115;52.002;4.686;2023-09-19T12:26:30;65937.34;;;20.20;81.38
59337;BME280;45115;52.002;4.686;2023-09-19T12:29:03;65941.94;;;20.24;81.44
59337;BME280;45115;52.002;4.686;2023-09-19T12:31:30;65947.06;;;20.28;81.82
59337;BME280;45115;52.002;4.686;2023-09-19T12:34:01;65933.22;;;20.14;81.80
59337;BME280;45115;52.002;4.686;2023-09-19T12:36:29;65945.25;;;20.24;82.23
59337;BME280;45115;52.002;4.686;2023-09-19T12:38:56;65952.13;;;20.30;82.53
59337;BME280;45115;52.002;4.686;2023-09-19T12:41:25;65938.97;;;20.19;81.17
59337;BME280;45115;52.002;4.686;2023-09-19T12:43:52;65965.75;;;20.40;81.96
59337;BME280;45115;52.002;4.686;2023-09-19T12:46:20;65971.06;;;20.49;80.99
59337;BME280;45115;52.002;4.686;2023-09-19T12:49:17;65976.69;;;20.52;80.59
59337;BME280;45115;52.002;4.686;2023-09-19T12:51:46;65956.69;;;20.34;80.56
59337;BME280;45115;52.002;4.686;2023-09-19T12:54:13;65944.69;;;20.24;81.90
59337;BME280;45115;52.002;4.686;2023-09-19T12:56:42;65939.06;;;20.21;81.04
59337;BME280;45115;52.002;4.686;2023-09-19T12:59:12;65956.78;;;20.37;81.29
59337;BME280;45115;52.002;4.686;2023-09-19T13:01:40;65991.06;;;20.67;82.14
59337;BME280;45115;52.002;4.686;2023-09-19T13:04:11;65978.97;;;20.54;81.20
59337;BME280;45115;52.002;4.686;2023-09-19T13:06:37;65956.13;;;20.34;82.60
59337;BME280;45115;52.002;4.686;2023-09-19T13:09:10;65975.44;;;20.48;83.59
59337;BME280;45115;52.002;4.686;2023-09-19T13:11:38;65987.53;;;20.61;81.94
59337;BME280;45115;52.002;4.686;2023-09-19T13:14:18;65956.00;;;20.31;81.78
59337;BME280;45115;52.002;4.686;2023-09-19T13:16:59;65937.25;;;20.17;81.92
59337;BME280;45115;52.002;4.686;2023-09-19T13:19:42;65921.25;;;20.03;83.10